Moscow Domodedovo, Russia

12:43 PM MSK on July 07, 2015 (GMT +0300)
Domodedovo | | Change Station
CLOSE
Current Station
Personal Weather Station
Location: Домодедово, Московская область
Elevation: 470 ft
Nearby Weather Stations

Elev 470 ft 55.44 °N, 37.78 °E | Updated 3 minutes ago

Mostly Cloudy
Mostly Cloudy
63.9 °F
Feels Like 63.9 °F
N
3.0
Wind Variable Wind from SSE
Gusts 6.0 mph

Today
High -- | Low -- °F
--% Chance of Precip.
Yesterday
High -- | Low -- °F
Precip. -- in
3:56 AM 9:09 PM
Waning Gibbous, 66% visible
Pressure 29.77 in
Visibility 6.2 miles
Clouds Scattered Clouds 1600 ft
Mostly Cloudy 10000 ft
Dew Point 57 °F
Humidity 78%
Rainfall 0.12 in
Snow Depth Not available.
UV 6 out of 12
Pollen Not available.
Air Quality Not available.
Flu Activity Not available.
METAR UUDD 070930Z 19007MPS 9999 SCT016 BKN100 19/16 Q1008 R88/290095 NOSIG

More Conditions Fewer Conditions

Pressure 29.77 in
Visibility 6.2 miles
Clouds Scattered Clouds 1600 ft
Mostly Cloudy 10000 ft
Dew Point 57 °F
Humidity 78%
Rainfall 0.12 in
Snow Depth Not available.
UV 6 out of 12
Pollen Not available.
Air Quality Not available.
Flu Activity Not available.
METAR UUDD 070930Z 19007MPS 9999 SCT016 BKN100 19/16 Q1008 R88/290095 NOSIG

More Conditions Fewer Conditions

10-Day Weather Forecast

×

Almanac

Astronomy

Jul. 07, 2015 Rise Set
Actual Time
Civil Twilight
Nautical Twilight
Astronomical Twilight
Moon
Length of Visible Light
Length of Day
Tomorrow will be .
, % of the Moon is Illuminated

Today's Extremes

Country Highs Country Lows

Community

WunderPhotos

Upload Photos

1,835,758 photos uploaded!

WunderBlogs® & News

Nearby

Air Quality

  Air Quality AQ Index Pollutant
Not available.

Snow Depth

Station Depth Elevation

Earthquake Activity

City Distance Mag. Time & Date
Minimum magnitude displayed is 2.5.

Coastal Water Temperatures

Place Temperature

Stations

Nearby Weather Stations

Station Location Temp. Windchill Dew Point Humidity Wind Precip. Elev Updated Type